createdAt,value
2018-11-04T00:00:56.563Z,32.38
2018-11-04T00:03:25.785Z,37.85
2018-11-04T00:05:54.766Z,45.63
2018-11-04T00:08:23.688Z,40.90
2018-11-04T00:10:52.614Z,45.03
2018-11-04T00:13:21.666Z,41.13
2018-11-04T00:15:50.520Z,40.70
2018-11-04T00:18:19.460Z,44.08
2018-11-04T00:20:48.379Z,42.48
2018-11-04T00:23:17.330Z,39.50
2018-11-04T00:25:46.278Z,40.50
2018-11-04T00:28:15.201Z,42.80
2018-11-04T00:30:44.136Z,41.95
2018-11-04T00:33:13.078Z,39.53
2018-11-04T00:35:42.018Z,43.15
2018-11-04T00:38:10.973Z,40.95
2018-11-04T00:40:39.901Z,40.90
2018-11-04T00:43:08.839Z,57.05
2018-11-04T00:45:37.824Z,45.08
2018-11-04T00:48:07.018Z,42.30
2018-11-04T00:50:35.966Z,39.00
2018-11-04T00:53:04.902Z,41.30
2018-11-04T00:55:33.829Z,43.23
2018-11-04T00:58:02.801Z,37.55
2018-11-04T01:00:31.746Z,33.42
2018-11-04T01:03:00.685Z,35.47
2018-11-04T01:05:29.607Z,37.53
2018-11-04T01:07:58.531Z,44.45
2018-11-04T01:10:27.465Z,46.75
2018-11-04T01:12:56.407Z,46.83
2018-11-04T01:15:25.317Z,49.33
2018-11-04T01:17:54.249Z,47.78
2018-11-04T01:20:23.169Z,44.03
2018-11-04T01:22:52.122Z,43.02
2018-11-04T01:25:21.017Z,41.27
2018-11-04T01:27:49.966Z,53.80
2018-11-04T01:30:18.890Z,55.20
2018-11-04T01:32:47.806Z,47.25
2018-11-04T01:35:16.725Z,51.88
2018-11-04T01:37:45.694Z,38.65
2018-11-04T01:40:14.620Z,42.30
2018-11-04T01:42:43.548Z,46.75
2018-11-04T01:45:12.518Z,37.45
2018-11-04T01:47:41.457Z,38.55
2018-11-04T01:50:13.411Z,46.05
2018-11-04T01:52:42.353Z,37.77
2018-11-04T01:55:12.093Z,42.15
2018-11-04T01:57:41.051Z,45.48
2018-11-04T02:00:15.221Z,48.98
2018-11-04T02:02:44.845Z,50.73
2018-11-04T02:05:14.213Z,49.10
2018-11-04T02:07:43.145Z,44.00
2018-11-04T02:10:13.233Z,39.98
2018-11-04T02:12:42.169Z,37.90
2018-11-04T02:15:12.422Z,38.83
2018-11-04T02:17:41.399Z,42.88
2018-11-04T02:20:11.834Z,57.50
2018-11-04T02:22:41.253Z,50.45
2018-11-04T02:25:11.550Z,50.60
2018-11-04T02:27:40.661Z,42.35
2018-11-04T02:30:12.033Z,46.37
2018-11-04T02:32:41.277Z,36.38
2018-11-04T02:35:10.194Z,41.92
2018-11-04T02:37:40.322Z,37.38
2018-11-04T02:40:09.317Z,45.12
2018-11-04T02:42:38.354Z,42.40
2018-11-04T02:45:07.585Z,35.15
2018-11-04T02:47:36.898Z,40.30
2018-11-04T02:50:06.637Z,51.15
2018-11-04T02:52:35.609Z,50.65
2018-11-04T02:55:04.827Z,61.60
2018-11-04T02:57:33.750Z,61.85
2018-11-04T03:00:02.672Z,52.10
2018-11-04T03:02:31.590Z,49.45
2018-11-04T03:05:00.509Z,48.00
2018-11-04T03:07:29.425Z,52.85
2018-11-04T03:09:58.347Z,57.73
2018-11-04T03:12:27.246Z,60.90
2018-11-04T03:14:56.202Z,61.28
2018-11-04T03:17:25.165Z,64.92
2018-11-04T03:19:54.081Z,59.13
2018-11-04T03:22:22.985Z,61.40
2018-11-04T03:24:51.927Z,69.22
2018-11-04T03:27:20.849Z,70.32
2018-11-04T03:29:49.788Z,62.13
2018-11-04T03:32:18.838Z,69.90
2018-11-04T03:34:47.783Z,61.68
2018-11-04T03:37:16.701Z,54.20
2018-11-04T03:39:45.657Z,49.10
2018-11-04T03:42:14.570Z,46.80
2018-11-04T03:44:43.499Z,51.75
2018-11-04T03:47:12.459Z,51.85
2018-11-04T03:49:41.368Z,44.05
2018-11-04T03:52:10.282Z,49.70
2018-11-04T03:54:39.213Z,58.15
2018-11-04T03:57:08.245Z,63.00
2018-11-04T03:59:37.162Z,61.90
2018-11-04T04:02:06.424Z,57.38
2018-11-04T04:04:35.433Z,59.55
2018-11-04T04:07:04.338Z,55.25
2018-11-04T04:09:33.261Z,56.83
2018-11-04T04:12:02.189Z,57.85
2018-11-04T04:14:31.122Z,52.38
2018-11-04T04:17:00.046Z,49.65
2018-11-04T04:19:28.961Z,48.87
2018-11-04T04:21:57.941Z,54.90
2018-11-04T04:24:26.871Z,55.43
2018-11-04T04:26:55.774Z,49.42
2018-11-04T04:29:24.710Z,47.23
2018-11-04T04:31:53.614Z,47.03
2018-11-04T04:34:22.564Z,46.53
2018-11-04T04:36:51.462Z,48.63
2018-11-04T04:39:20.397Z,46.33
2018-11-04T04:41:49.301Z,43.45
2018-11-04T04:44:18.245Z,45.38
2018-11-04T04:46:47.152Z,43.28
2018-11-04T04:49:16.086Z,44.73
2018-11-04T04:51:45.014Z,44.45
2018-11-04T04:54:13.943Z,42.90
2018-11-04T04:56:42.826Z,43.33
2018-11-04T04:59:11.753Z,47.88
2018-11-04T05:01:40.658Z,52.78
2018-11-04T05:04:09.593Z,55.75
2018-11-04T05:06:38.513Z,68.67
2018-11-04T05:09:07.700Z,65.30
2018-11-04T05:11:36.634Z,62.58
2018-11-04T05:14:05.581Z,53.95
2018-11-04T05:16:34.539Z,57.17
2018-11-04T05:19:03.453Z,47.40
2018-11-04T05:21:32.378Z,50.17
2018-11-04T05:24:01.297Z,47.10
2018-11-04T05:26:30.238Z,44.73
2018-11-04T05:28:59.147Z,44.33
2018-11-04T05:31:28.097Z,48.58
2018-11-04T05:33:56.986Z,51.50
2018-11-04T05:36:25.927Z,55.85
2018-11-04T05:38:54.873Z,63.48
2018-11-04T05:41:23.822Z,55.60
2018-11-04T05:43:52.741Z,59.55
2018-11-04T05:46:21.681Z,61.25
2018-11-04T05:48:50.609Z,74.82
2018-11-04T05:51:19.532Z,67.90
2018-11-04T05:53:48.465Z,76.70
2018-11-04T05:56:17.394Z,76.92
2018-11-04T05:58:46.317Z,67.70
2018-11-04T06:01:15.291Z,74.32
2018-11-04T06:03:44.213Z,87.53
2018-11-04T06:06:13.157Z,104.95
2018-11-04T06:08:42.074Z,85.87
2018-11-04T06:11:11.026Z,87.88
2018-11-04T06:13:39.941Z,85.37
2018-11-04T06:16:09.329Z,86.40
2018-11-04T06:18:38.538Z,95.90
2018-11-04T06:21:07.540Z,80.00
2018-11-04T06:23:36.481Z,83.37
2018-11-04T06:26:05.534Z,93.95
2018-11-04T06:28:34.493Z,92.85
2018-11-04T06:31:03.452Z,82.92
2018-11-04T06:33:32.351Z,95.72
2018-11-04T06:36:01.285Z,92.35
2018-11-04T06:38:30.208Z,84.00
2018-11-04T06:40:59.165Z,72.30
2018-11-04T06:43:28.065Z,62.80
2018-11-04T06:45:56.998Z,68.62
2018-11-04T06:48:25.912Z,72.62
2018-11-04T06:50:54.833Z,92.67
2018-11-04T06:53:23.771Z,96.32
2018-11-04T06:55:52.715Z,91.20
2018-11-04T06:58:21.629Z,85.38
2018-11-04T07:00:50.558Z,103.42
2018-11-04T07:03:19.461Z,106.43
2018-11-04T07:05:48.394Z,99.05
2018-11-04T07:08:17.306Z,94.52
2018-11-04T07:10:46.234Z,93.97
2018-11-04T07:13:15.162Z,109.45
2018-11-04T07:15:44.210Z,104.38
2018-11-04T07:18:13.141Z,104.63
2018-11-04T07:20:42.109Z,97.55
2018-11-04T07:23:11.030Z,107.22
2018-11-04T07:25:40.136Z,109.85
2018-11-04T07:28:08.961Z,110.80
2018-11-04T07:30:37.879Z,122.23
2018-11-04T07:33:06.834Z,129.95
2018-11-04T07:35:35.749Z,107.72
2018-11-04T07:38:04.810Z,112.00
2018-11-04T07:40:33.742Z,114.53
2018-11-04T07:43:02.690Z,123.80
2018-11-04T07:45:31.625Z,125.57
2018-11-04T07:48:00.566Z,91.60
2018-11-04T07:50:29.562Z,109.20
2018-11-04T07:52:58.510Z,115.13
2018-11-04T07:55:27.490Z,121.70
2018-11-04T07:57:56.491Z,124.20
2018-11-04T08:00:25.429Z,121.28
2018-11-04T08:02:54.435Z,106.63
2018-11-04T08:05:23.372Z,130.22
2018-11-04T08:07:52.318Z,134.10
2018-11-04T08:10:21.327Z,125.55
2018-11-04T08:12:50.264Z,126.53
2018-11-04T08:15:19.241Z,134.35
2018-11-04T08:17:48.199Z,139.25
2018-11-04T08:20:17.148Z,120.40
2018-11-04T08:22:46.134Z,128.33
2018-11-04T08:25:15.070Z,128.20
2018-11-04T08:27:44.188Z,121.35
2018-11-04T08:30:13.091Z,129.73
2018-11-04T08:32:42.040Z,132.27
2018-11-04T08:35:11.019Z,140.07
2018-11-04T08:37:39.977Z,127.60
2018-11-04T08:40:09.060Z,135.40
2018-11-04T08:42:37.838Z,125.70
2018-11-04T08:45:06.986Z,106.72
2018-11-04T08:47:36.014Z,118.80
2018-11-04T08:50:06.363Z,103.95
2018-11-04T08:52:35.472Z,119.83
2018-11-04T08:55:04.359Z,112.10
2018-11-04T08:57:33.313Z,115.23
2018-11-04T09:00:02.378Z,105.37
2018-11-04T09:02:31.247Z,115.90
2018-11-04T09:05:03.254Z,109.35
2018-11-04T09:07:32.199Z,112.95
2018-11-04T09:10:01.134Z,111.00
2018-11-04T09:12:30.109Z,99.52
2018-11-04T09:14:59.039Z,105.43
2018-11-04T09:17:27.999Z,96.83
2018-11-04T09:19:57.014Z,90.27
2018-11-04T09:22:26.081Z,92.55
2018-11-04T09:24:54.950Z,104.20
2018-11-04T09:27:24.694Z,109.42
2018-11-04T09:29:53.673Z,99.30
2018-11-04T09:32:23.399Z,93.53
2018-11-04T09:34:52.455Z,89.10
2018-11-04T09:37:21.767Z,93.67
2018-11-04T09:39:50.697Z,88.97
2018-11-04T09:42:19.714Z,96.53
2018-11-04T09:44:48.661Z,95.00
2018-11-04T09:47:17.625Z,90.70
2018-11-04T09:49:46.659Z,94.07
2018-11-04T09:52:15.553Z,81.50
2018-11-04T09:54:44.487Z,84.33
2018-11-04T09:57:13.401Z,86.53
2018-11-04T09:59:42.326Z,89.87
2018-11-04T10:02:11.238Z,83.17
2018-11-04T10:04:40.166Z,90.67
2018-11-04T10:07:09.154Z,87.62
2018-11-04T10:09:38.195Z,82.03
2018-11-04T10:12:07.142Z,83.65
2018-11-04T10:14:36.118Z,85.03
2018-11-04T10:17:05.718Z,93.15
2018-11-04T10:19:34.816Z,93.52
2018-11-04T10:22:03.587Z,93.93
2018-11-04T10:24:32.539Z,90.10
2018-11-04T10:27:01.538Z,97.72
2018-11-04T10:29:30.676Z,103.43
2018-11-04T10:31:59.637Z,85.22
2018-11-04T10:34:28.597Z,93.53
2018-11-04T10:36:57.565Z,88.30
2018-11-04T10:39:26.565Z,80.43
2018-11-04T10:41:55.483Z,78.03
2018-11-04T10:44:24.429Z,84.22
2018-11-04T10:46:53.404Z,82.27
2018-11-04T10:49:22.403Z,78.87
2018-11-04T10:51:51.369Z,79.42
2018-11-04T10:54:20.305Z,83.37
2018-11-04T10:56:49.852Z,89.13
2018-11-04T10:59:18.798Z,82.02
2018-11-04T11:01:47.717Z,83.12
2018-11-04T11:04:16.799Z,75.93
2018-11-04T11:06:45.854Z,79.82
2018-11-04T11:09:15.921Z,83.27
2018-11-04T11:11:45.146Z,77.37
2018-11-04T11:14:14.169Z,82.97
2018-11-04T11:16:43.225Z,76.95
2018-11-04T11:19:12.440Z,79.90
2018-11-04T11:21:42.013Z,78.33
2018-11-04T11:24:11.107Z,86.40
2018-11-04T11:26:41.349Z,75.10
2018-11-04T11:29:11.614Z,80.25
2018-11-04T11:31:41.466Z,74.63
2018-11-04T11:34:10.405Z,76.20
2018-11-04T11:36:40.733Z,83.23
2018-11-04T11:39:11.659Z,78.23
2018-11-04T11:41:41.166Z,85.40
2018-11-04T11:44:10.094Z,82.97
2018-11-04T11:46:39.443Z,80.07
2018-11-04T11:49:08.614Z,74.42
2018-11-04T11:51:37.692Z,76.97
2018-11-04T11:54:07.197Z,78.96
2018-11-04T11:56:36.129Z,73.37
2018-11-04T11:59:05.151Z,82.20
2018-11-04T12:01:34.355Z,84.07
2018-11-04T12:04:03.438Z,73.30
2018-11-04T12:06:32.400Z,70.33
2018-11-04T12:09:03.942Z,75.30
2018-11-04T12:11:33.710Z,75.35
2018-11-04T12:14:03.867Z,73.90
2018-11-04T12:16:32.842Z,84.25
2018-11-04T12:19:01.799Z,70.70
2018-11-04T12:21:30.938Z,66.60
2018-11-04T12:24:00.046Z,73.25
2018-11-04T12:26:28.966Z,70.80
2018-11-04T12:28:57.933Z,71.90
2018-11-04T12:31:27.157Z,74.72
2018-11-04T12:33:56.181Z,67.63
2018-11-04T12:36:27.008Z,71.73
2018-11-04T12:38:56.855Z,72.90
2018-11-04T12:41:26.039Z,69.30
2018-11-04T12:43:55.175Z,72.42
2018-11-04T12:46:25.152Z,73.17
2018-11-04T12:48:54.165Z,75.25
2018-11-04T12:51:23.233Z,69.27
2018-11-04T12:53:52.174Z,76.33
2018-11-04T12:56:21.195Z,80.25
2018-11-04T12:58:50.158Z,73.70
2018-11-04T13:01:19.458Z,69.53
2018-11-04T13:03:48.640Z,75.47
2018-11-04T13:06:17.617Z,72.73
2018-11-04T13:08:46.866Z,75.80
2018-11-04T13:11:15.921Z,75.97
2018-11-04T13:13:44.903Z,73.60
2018-11-04T13:16:13.951Z,68.77
2018-11-04T13:18:42.924Z,73.60
2018-11-04T13:21:11.995Z,72.50
2018-11-04T13:23:40.924Z,74.63
2018-11-04T13:26:10.034Z,68.60
2018-11-04T13:28:39.097Z,71.20
2018-11-04T13:31:08.133Z,69.50
2018-11-04T13:33:37.082Z,96.92
2018-11-04T13:36:06.109Z,71.60
2018-11-04T13:38:35.072Z,71.73
2018-11-04T13:41:04.117Z,68.57
2018-11-04T13:43:33.083Z,71.42
2018-11-04T13:46:02.026Z,69.07
2018-11-04T13:48:30.965Z,73.10
2018-11-04T13:50:59.893Z,69.87
2018-11-04T13:53:28.935Z,67.30
2018-11-04T13:55:57.874Z,72.08
2018-11-04T13:58:26.926Z,68.73
2018-11-04T14:00:55.879Z,72.72
2018-11-04T14:03:24.789Z,72.90
2018-11-04T14:05:53.742Z,68.07
2018-11-04T14:08:22.657Z,76.47
2018-11-04T14:10:51.588Z,72.97
2018-11-04T14:13:20.555Z,68.92
2018-11-04T14:15:49.510Z,67.87
2018-11-04T14:18:18.420Z,69.17
2018-11-04T14:20:47.373Z,66.70
2018-11-04T14:23:16.297Z,68.10
2018-11-04T14:25:45.246Z,69.37
2018-11-04T14:28:14.163Z,68.97
2018-11-04T14:30:43.097Z,66.93
2018-11-04T14:33:12.003Z,61.63
2018-11-04T14:35:40.968Z,68.22
2018-11-04T14:38:09.927Z,64.33
2018-11-04T14:40:38.923Z,67.60
2018-11-04T14:43:08.673Z,62.45
2018-11-04T14:45:37.666Z,66.70
2018-11-04T14:48:06.593Z,64.97
2018-11-04T14:50:35.561Z,65.30
2018-11-04T14:53:04.667Z,64.40
2018-11-04T14:55:33.502Z,62.10
2018-11-04T14:58:02.422Z,65.67
2018-11-04T15:00:35.529Z,63.47
2018-11-04T15:03:05.185Z,63.57
2018-11-04T15:05:34.150Z,60.80
2018-11-04T15:08:03.042Z,58.38
2018-11-04T15:10:31.975Z,56.80
2018-11-04T15:13:00.913Z,61.40
2018-11-04T15:15:29.847Z,58.68
2018-11-04T15:17:58.825Z,78.60
2018-11-04T15:20:27.746Z,61.28
2018-11-04T15:22:56.685Z,58.60
2018-11-04T15:25:25.602Z,55.23
2018-11-04T15:27:54.558Z,55.90
2018-11-04T15:30:23.473Z,52.93
2018-11-04T15:32:52.444Z,53.55
2018-11-04T15:35:21.404Z,52.03
2018-11-04T15:37:50.406Z,55.97
2018-11-04T15:40:19.390Z,57.15
2018-11-04T15:42:48.326Z,54.30
2018-11-04T15:45:17.617Z,49.37
2018-11-04T15:47:46.595Z,49.67
2018-11-04T15:50:16.893Z,48.83
2018-11-04T15:52:45.945Z,51.60
2018-11-04T15:55:14.861Z,51.50
2018-11-04T15:57:43.830Z,51.63
2018-11-04T16:00:14.098Z,51.57
2018-11-04T16:02:43.078Z,58.10
2018-11-04T16:05:12.216Z,56.60
2018-11-04T16:07:41.125Z,51.53
2018-11-04T16:10:10.673Z,50.80
2018-11-04T16:12:40.011Z,50.20
2018-11-04T16:15:11.243Z,92.57
2018-11-04T16:17:40.185Z,74.90
2018-11-04T16:20:10.657Z,72.07
2018-11-04T16:22:40.282Z,136.13
2018-11-04T16:25:09.660Z,163.60
2018-11-04T16:27:38.670Z,125.60
2018-11-04T16:30:09.845Z,60.85
2018-11-04T16:32:39.142Z,66.70
2018-11-04T16:35:09.527Z,54.48
2018-11-04T16:37:38.853Z,53.00
2018-11-04T16:40:08.306Z,57.73
2018-11-04T16:42:37.366Z,64.67
2018-11-04T16:45:08.393Z,52.73
2018-11-04T16:47:37.778Z,51.30
2018-11-04T16:50:07.282Z,51.70
2018-11-04T16:52:36.149Z,44.17
2018-11-04T16:55:05.917Z,37.48
2018-11-04T16:57:34.894Z,33.70
2018-11-04T17:00:03.918Z,29.82
2018-11-04T17:02:32.945Z,34.35
2018-11-04T17:05:01.990Z,24.95
2018-11-04T17:07:30.842Z,24.00
2018-11-04T17:09:59.788Z,23.10
2018-11-04T17:12:28.706Z,20.20
2018-11-04T17:14:57.633Z,19.50
2018-11-04T17:17:26.541Z,20.50
2018-11-04T17:19:55.493Z,19.10
2018-11-04T17:22:24.437Z,17.00
2018-11-04T17:24:53.562Z,16.40
2018-11-04T17:27:22.469Z,40.87
2018-11-04T17:29:51.414Z,65.52
2018-11-04T17:32:20.332Z,159.67
2018-11-04T17:34:49.310Z,136.32
2018-11-04T17:37:18.543Z,47.60
2018-11-04T17:39:47.498Z,18.70
2018-11-04T17:42:16.444Z,18.17
2018-11-04T17:44:45.648Z,14.65
2018-11-04T17:47:14.548Z,17.37
2018-11-04T17:49:43.499Z,15.78
2018-11-04T17:52:12.454Z,15.55
2018-11-04T17:54:41.568Z,15.48
2018-11-04T17:57:10.505Z,16.27
2018-11-04T17:59:39.465Z,17.37
2018-11-04T18:02:08.388Z,20.07
2018-11-04T18:04:37.347Z,15.20
2018-11-04T18:07:06.294Z,15.63
2018-11-04T18:09:35.281Z,16.00
2018-11-04T18:12:04.397Z,15.45
2018-11-04T18:14:33.694Z,19.40
2018-11-04T18:17:02.625Z,18.92
2018-11-04T18:19:31.602Z,22.65
2018-11-04T18:22:00.544Z,21.27
2018-11-04T18:24:29.497Z,21.37
2018-11-04T18:26:58.475Z,24.20
2018-11-04T18:29:27.432Z,23.90
2018-11-04T18:31:56.385Z,23.90
2018-11-04T18:34:25.349Z,24.70
2018-11-04T18:36:54.289Z,25.70
2018-11-04T18:39:23.244Z,24.67
2018-11-04T18:41:52.198Z,26.35
2018-11-04T18:44:21.229Z,24.70
2018-11-04T18:46:50.174Z,23.20
2018-11-04T18:49:19.117Z,21.70
2018-11-04T18:51:48.080Z,20.20
2018-11-04T18:54:17.039Z,20.20
2018-11-04T18:56:45.971Z,22.32
2018-11-04T18:59:14.990Z,18.87
2018-11-04T19:01:43.834Z,22.27
2018-11-04T19:04:12.778Z,46.45
2018-11-04T19:06:41.746Z,26.00
2018-11-04T19:09:11.174Z,58.60
2018-11-04T19:11:40.149Z,63.60
2018-11-04T19:14:09.105Z,84.03
2018-11-04T19:16:38.070Z,82.93
2018-11-04T19:19:07.030Z,141.00
2018-11-04T19:21:35.958Z,169.97
2018-11-04T19:24:05.270Z,68.02
2018-11-04T19:26:34.223Z,44.80
2018-11-04T19:29:03.171Z,30.17
2018-11-04T19:31:32.109Z,24.65
2018-11-04T19:34:01.041Z,25.57
2018-11-04T19:36:29.973Z,23.62
2018-11-04T19:38:58.942Z,22.87
2018-11-04T19:41:27.886Z,21.60
2018-11-04T19:44:17.757Z,22.77
2018-11-04T19:46:47.469Z,21.68
2018-11-04T19:49:16.386Z,23.50
2018-11-04T19:51:45.403Z,23.87
2018-11-04T19:54:15.806Z,22.85
2018-11-04T19:56:44.809Z,21.93
2018-11-04T19:59:14.245Z,21.08
2018-11-04T20:01:43.206Z,22.20
2018-11-04T20:04:19.775Z,21.60
2018-11-04T20:06:52.341Z,18.93
2018-11-04T20:09:21.382Z,21.30
2018-11-04T20:11:50.344Z,23.62
2018-11-04T20:14:21.482Z,23.30
2018-11-04T20:16:52.377Z,25.88
2018-11-04T20:19:26.997Z,24.65
2018-11-04T20:21:56.505Z,24.95
2018-11-04T20:24:30.790Z,31.23
2018-11-04T20:27:00.120Z,27.67
2018-11-04T20:29:29.133Z,32.60
2018-11-04T20:32:03.518Z,32.48
2018-11-04T20:34:32.438Z,28.37
2018-11-04T20:37:01.380Z,28.27
2018-11-04T20:39:35.624Z,31.30
2018-11-04T20:42:04.551Z,33.42
2018-11-04T20:44:37.639Z,30.80
2018-11-04T20:47:06.565Z,30.03
2018-11-04T20:50:42.677Z,30.40
2018-11-04T20:53:11.641Z,31.07
2018-11-04T20:55:45.960Z,30.80
2018-11-04T20:58:15.047Z,28.27
2018-11-04T21:00:43.848Z,32.03
2018-11-04T21:03:12.790Z,32.30
2018-11-04T21:05:41.781Z,31.02
2018-11-04T21:08:10.730Z,36.95
2018-11-04T21:10:39.639Z,30.83
2018-11-04T21:13:08.582Z,35.63
2018-11-04T21:15:37.517Z,31.30
2018-11-04T21:18:06.458Z,28.67
2018-11-04T21:20:35.374Z,32.08
2018-11-04T21:23:04.305Z,28.17
2018-11-04T21:25:33.714Z,30.30
2018-11-04T21:28:02.892Z,32.15
2018-11-04T21:30:32.265Z,33.90
2018-11-04T21:33:02.409Z,27.80
2018-11-04T21:35:31.345Z,28.30
2018-11-04T21:38:00.348Z,24.70
2018-11-04T21:40:29.618Z,25.25
2018-11-04T21:42:58.581Z,27.13
2018-11-04T21:45:27.491Z,27.22
2018-11-04T21:47:56.443Z,28.00
2018-11-04T21:50:25.555Z,27.20
2018-11-04T21:52:54.517Z,27.42
2018-11-04T21:55:24.158Z,29.52
2018-11-04T21:57:52.956Z,25.27
2018-11-04T22:00:22.200Z,25.82
2018-11-04T22:02:51.287Z,26.00
2018-11-04T22:05:20.080Z,30.93
2018-11-04T22:07:49.004Z,24.63
2018-11-04T22:10:17.963Z,25.87
2018-11-04T22:12:46.897Z,24.40
2018-11-04T22:15:15.862Z,26.00
2018-11-04T22:17:44.804Z,23.85
2018-11-04T22:20:13.753Z,25.62
2018-11-04T22:22:42.666Z,29.67
2018-11-04T22:25:12.109Z,25.50
2018-11-04T22:27:41.070Z,29.05
2018-11-04T22:30:11.431Z,26.68
2018-11-04T22:32:40.425Z,27.30
2018-11-04T22:35:10.691Z,24.90
2018-11-04T22:37:39.669Z,26.82
2018-11-04T22:40:09.948Z,24.57
2018-11-04T22:42:39.026Z,25.10
2018-11-04T22:45:09.053Z,26.42
2018-11-04T22:47:38.030Z,26.00
2018-11-04T22:50:11.246Z,26.57
2018-11-04T22:52:40.726Z,28.80
2018-11-04T22:55:09.938Z,26.20
2018-11-04T22:57:38.865Z,26.97
2018-11-04T23:00:13.888Z,28.10
2018-11-04T23:02:42.796Z,28.90
2018-11-04T23:05:17.022Z,28.80
2018-11-04T23:07:46.109Z,27.25
2018-11-04T23:10:15.270Z,29.50
2018-11-04T23:12:44.234Z,30.05
2018-11-04T23:15:13.227Z,28.60
2018-11-04T23:17:42.301Z,29.37
2018-11-04T23:20:11.209Z,30.00
2018-11-04T23:22:40.138Z,28.95
2018-11-04T23:25:11.048Z,32.20
2018-11-04T23:27:40.686Z,30.62
2018-11-04T23:30:11.738Z,33.05
2018-11-04T23:32:41.002Z,36.90
2018-11-04T23:35:10.887Z,33.13
2018-11-04T23:37:39.949Z,32.03
2018-11-04T23:40:09.496Z,34.08
2018-11-04T23:42:38.440Z,33.00
2018-11-04T23:45:08.640Z,34.50
2018-11-04T23:47:37.744Z,36.90
2018-11-04T23:50:08.675Z,36.60
2018-11-04T23:52:37.665Z,35.55
2018-11-04T23:55:07.135Z,36.08
2018-11-04T23:57:36.084Z,35.15
